Time;durP1;ratioP1;P1;durP2;ratioP2;P2;SDS_P1;SDS_P2;PMS_P1;PMS_P2;Temp;Humidity;BMP_temperature;BMP_pressure;BME280_temperature;BME280_humidity;BME280_pressure;Samples;Min_cycle;Max_cycle;Signal;HPM_P1;HPM_P2
2024/01/30 00:00:37;;;;;;;18.67;11.67;;;3.80;19.60;;;;;;5021115;28;20975;-67
2024/01/30 00:03:04;;;;;;;12.90;9.30;;;3.70;19.30;;;;;;5025386;28;20470;-70
2024/01/30 00:05:32;;;;;;;17.23;11.67;;;3.70;19.40;;;;;;5022588;28;20465;-70
2024/01/30 00:07:59;;;;;;;16.70;11.80;;;3.60;19.30;;;;;;5022480;28;21002;-70
2024/01/30 00:10:25;;;;;;;18.53;11.50;;;3.60;19.20;;;;;;5025903;28;20470;-70
2024/01/30 00:12:52;;;;;;;15.17;11.20;;;3.60;19.10;;;;;;5026107;28;21321;-70
2024/01/30 00:15:19;;;;;;;19.23;12.00;;;3.60;19.20;;;;;;5025701;28;20470;-70
2024/01/30 00:17:45;;;;;;;19.03;10.90;;;3.60;19.20;;;;;;5022617;28;20862;-70
2024/01/30 00:20:12;;;;;;;16.70;11.37;;;3.60;19.40;;;;;;5027266;28;20480;-70
2024/01/30 00:22:40;;;;;;;15.50;11.43;;;3.70;19.30;;;;;;5024603;28;20540;-70
2024/01/30 00:25:08;;;;;;;20.07;12.07;;;3.70;19.10;;;;;;5026393;28;21013;-69
2024/01/30 00:27:34;;;;;;;18.17;12.20;;;3.70;19.10;;;;;;5025850;28;20489;-69
2024/01/30 00:30:01;;;;;;;17.77;12.03;;;3.70;19.10;;;;;;5021069;28;20485;-70
2024/01/30 00:32:28;;;;;;;17.53;11.83;;;3.70;18.90;;;;;;5026329;28;20482;-70
2024/01/30 00:34:54;;;;;;;16.80;11.90;;;3.70;18.80;;;;;;5030870;28;20833;-70
2024/01/30 00:37:21;;;;;;;19.07;11.40;;;3.70;18.80;;;;;;5037297;28;20558;-70
2024/01/30 00:39:49;;;;;;;16.20;12.23;;;3.70;19.00;;;;;;5028405;28;20545;-70
2024/01/30 00:42:16;;;;;;;18.57;12.60;;;3.70;19.10;;;;;;5026537;28;20478;-69
2024/01/30 00:44:43;;;;;;;19.70;11.97;;;3.60;19.10;;;;;;5028715;28;20463;-70
2024/01/30 00:47:09;;;;;;;17.70;12.03;;;3.60;19.10;;;;;;5037513;28;20548;-70
2024/01/30 00:49:36;;;;;;;19.00;12.37;;;3.60;19.00;;;;;;5027147;28;20451;-70
2024/01/30 00:52:04;;;;;;;20.27;13.23;;;3.60;19.00;;;;;;5029842;28;20474;-69
2024/01/30 00:54:30;;;;;;;21.73;14.13;;;3.60;19.00;;;;;;5033248;28;20473;-70
2024/01/30 00:56:59;;;;;;;23.77;14.00;;;3.60;19.00;;;;;;5033464;28;20478;-70
2024/01/30 00:59:25;;;;;;;23.30;14.50;;;3.60;19.00;;;;;;5031326;28;20597;-70
2024/01/30 01:01:52;;;;;;;33.07;20.07;;;3.60;18.90;;;;;;5030219;28;20483;-70
2024/01/30 01:04:21;;;;;;;21.20;14.03;;;3.50;19.00;;;;;;5028932;28;20844;-70
2024/01/30 01:06:47;;;;;;;21.70;11.87;;;3.60;19.10;;;;;;5036463;28;20745;-70
2024/01/30 01:09:15;;;;;;;17.30;11.83;;;3.50;19.30;;;;;;5029361;28;20474;-69
2024/01/30 01:11:42;;;;;;;18.57;12.63;;;3.50;19.40;;;;;;5031338;28;20478;-70
2024/01/30 01:14:10;;;;;;;20.30;13.33;;;3.60;19.70;;;;;;5036143;28;20467;-70
2024/01/30 01:16:37;;;;;;;28.63;17.17;;;3.60;19.80;;;;;;5026375;28;20847;-70
2024/01/30 01:19:04;;;;;;;19.77;14.23;;;3.60;19.70;;;;;;5030569;28;20463;-70
2024/01/30 01:21:31;;;;;;;22.30;17.23;;;3.60;19.70;;;;;;5032150;28;20455;-69
2024/01/30 01:23:57;;;;;;;22.33;17.23;;;3.60;19.60;;;;;;5033691;28;20478;-70
2024/01/30 01:26:24;;;;;;;17.67;12.57;;;3.60;19.40;;;;;;5029239;28;20474;-70
2024/01/30 01:28:51;;;;;;;21.73;11.40;;;3.60;19.50;;;;;;5032706;28;20462;-70
2024/01/30 01:31:19;;;;;;;17.53;11.77;;;3.60;19.30;;;;;;5026255;28;20473;-70
2024/01/30 01:33:45;;;;;;;17.33;9.93;;;3.60;19.40;;;;;;5031760;28;20956;-70
2024/01/30 01:36:14;;;;;;;13.77;9.93;;;3.60;19.30;;;;;;5030593;28;20470;-69
2024/01/30 01:38:40;;;;;;;16.67;9.50;;;3.50;19.30;;;;;;5028933;28;21083;-70
2024/01/30 01:41:07;;;;;;;14.40;9.50;;;3.50;19.20;;;;;;5029596;28;20570;-69
2024/01/30 01:43:34;;;;;;;15.93;10.60;;;3.50;19.20;;;;;;5029350;28;20466;-69
2024/01/30 01:46:01;;;;;;;16.50;9.57;;;3.50;19.20;;;;;;5028969;28;20459;-70
2024/01/30 01:48:29;;;;;;;16.17;9.40;;;3.40;19.20;;;;;;5032538;28;20510;-70
2024/01/30 01:50:56;;;;;;;14.40;9.97;;;3.40;19.20;;;;;;5028525;28;20517;-70
2024/01/30 01:53:23;;;;;;;14.80;9.93;;;3.40;19.20;;;;;;5030946;28;20454;-70
2024/01/30 01:55:50;;;;;;;17.30;9.27;;;3.30;19.40;;;;;;5054484;22;20498;-67
2024/01/30 01:58:17;;;;;;;14.47;9.97;;;3.30;19.30;;;;;;5049900;28;20521;-67
2024/01/30 02:00:44;;;;;;;16.37;10.43;;;3.30;19.40;;;;;;5049895;28;20480;-67
2024/01/30 02:03:12;;;;;;;16.53;10.27;;;3.20;19.40;;;;;;5047744;28;20483;-67
2024/01/30 02:05:42;;;;;;;14.47;10.00;;;3.20;19.40;;;;;;5048668;28;20939;-68
2024/01/30 02:08:10;;;;;;;15.70;9.93;;;3.20;19.90;;;;;;5050477;28;20485;-66
2024/01/30 02:10:36;;;;;;;16.07;10.97;;;3.20;19.40;;;;;;5049515;28;20486;-67
2024/01/30 02:13:04;;;;;;;17.03;9.80;;;3.20;19.50;;;;;;5049727;28;20505;-67
2024/01/30 02:15:31;;;;;;;16.67;10.50;;;3.10;19.50;;;;;;5045506;28;20817;-67
2024/01/30 02:17:57;;;;;;;16.37;11.50;;;3.10;19.50;;;;;;5045596;28;20478;-67
2024/01/30 02:20:26;;;;;;;16.27;10.40;;;3.10;19.50;;;;;;5055842;28;20453;-66
2024/01/30 02:22:56;;;;;;;17.80;11.20;;;3.10;19.60;;;;;;5049892;28;20993;-67
2024/01/30 02:25:31;;;;;;;18.40;11.77;;;3.10;19.70;;;;;;5044393;28;20469;-67
2024/01/30 02:27:58;;;;;;;14.17;10.90;;;3.10;19.80;;;;;;5046766;28;20480;-66
2024/01/30 02:30:25;;;;;;;17.50;11.17;;;3.10;19.70;;;;;;5047768;28;20466;-68
2024/01/30 02:32:51;;;;;;;15.63;11.07;;;3.10;19.70;;;;;;5048271;28;20469;-67
2024/01/30 02:35:18;;;;;;;14.70;10.20;;;3.10;19.80;;;;;;5045352;28;20470;-67
2024/01/30 02:37:45;;;;;;;15.90;10.50;;;3.10;19.80;;;;;;5049644;28;20478;-68
2024/01/30 02:40:13;;;;;;;12.83;9.00;;;3.10;19.80;;;;;;5050786;28;20465;-68
2024/01/30 02:42:41;;;;;;;8.97;6.47;;;3.20;19.80;;;;;;5046633;28;20465;-67
2024/01/30 02:45:09;;;;;;;13.80;9.63;;;3.20;19.40;;;;;;5040177;28;20465;-67
2024/01/30 02:47:36;;;;;;;10.67;7.00;;;3.20;19.20;;;;;;5048414;28;20486;-67
2024/01/30 02:50:03;;;;;;;12.70;7.50;;;3.20;19.10;;;;;;5048828;28;20465;-67
2024/01/30 02:52:30;;;;;;;13.27;7.70;;;3.20;19.00;;;;;;5046845;28;20481;-67
2024/01/30 02:54:57;;;;;;;12.07;7.83;;;3.10;19.10;;;;;;5046241;28;20466;-67
2024/01/30 02:57:25;;;;;;;13.70;7.80;;;3.10;19.10;;;;;;5049853;28;20485;-67
2024/01/30 02:59:52;;;;;;;11.10;7.33;;;3.10;19.10;;;;;;5044595;28;20458;-68
2024/01/30 03:02:19;;;;;;;13.80;8.13;;;3.10;19.10;;;;;;5047095;28;21007;-67
2024/01/30 03:04:45;;;;;;;13.33;8.93;;;3.00;19.00;;;;;;5048028;28;20468;-67
2024/01/30 03:07:12;;;;;;;12.43;8.20;;;3.00;19.10;;;;;;5047471;28;20470;-67
2024/01/30 03:09:39;;;;;;;14.30;8.10;;;3.00;19.00;;;;;;5044129;28;20462;-68
2024/01/30 03:12:06;;;;;;;12.77;8.13;;;3.00;19.00;;;;;;5047091;28;21029;-68
2024/01/30 03:14:34;;;;;;;13.00;7.07;;;3.10;19.00;;;;;;5045343;28;20470;-68
2024/01/30 03:17:01;;;;;;;12.67;8.00;;;3.00;18.80;;;;;;5049260;28;20499;-67
2024/01/30 03:19:28;;;;;;;13.50;8.00;;;3.00;18.80;;;;;;5048054;28;20454;-67
2024/01/30 03:21:55;;;;;;;12.53;8.30;;;3.00;18.80;;;;;;5051401;28;20462;-67
2024/01/30 03:24:21;;;;;;;10.97;7.27;;;3.00;18.80;;;;;;5048058;28;20453;-67
2024/01/30 03:26:48;;;;;;;13.97;7.97;;;2.90;18.80;;;;;;5049834;28;20512;-68
2024/01/30 03:29:15;;;;;;;14.00;7.47;;;2.90;18.70;;;;;;5048357;28;20458;-68
2024/01/30 03:31:43;;;;;;;11.90;7.23;;;2.90;18.70;;;;;;5047570;28;20565;-67
2024/01/30 03:34:10;;;;;;;12.67;7.60;;;2.90;19.20;;;;;;5049189;28;21158;-67
2024/01/30 03:36:37;;;;;;;10.60;7.20;;;2.90;18.60;;;;;;5047793;28;20469;-68
2024/01/30 03:39:03;;;;;;;12.50;8.37;;;2.90;18.60;;;;;;5076051;28;20465;-67
2024/01/30 03:41:31;;;;;;;12.73;7.53;;;2.80;18.60;;;;;;5076901;28;20450;-68
2024/01/30 03:43:57;;;;;;;11.60;7.70;;;2.80;18.60;;;;;;5049416;28;20458;-69
2024/01/30 03:46:24;;;;;;;10.07;7.10;;;2.80;18.70;;;;;;5048177;28;20458;-67
2024/01/30 03:48:52;;;;;;;11.17;7.33;;;2.80;18.60;;;;;;5045367;28;20465;-67
2024/01/30 03:51:19;;;;;;;13.33;7.30;;;2.80;18.70;;;;;;5045143;28;21024;-67
2024/01/30 03:53:46;;;;;;;12.53;7.57;;;2.80;18.70;;;;;;5048802;28;20485;-66
2024/01/30 03:56:13;;;;;;;12.70;8.40;;;2.70;18.80;;;;;;5047551;28;20611;-66
2024/01/30 03:58:41;;;;;;;13.47;8.30;;;2.70;18.80;;;;;;5027087;28;20469;-67
2024/01/30 04:01:08;;;;;;;12.70;8.40;;;2.70;18.80;;;;;;5047164;28;20466;-67
2024/01/30 04:03:34;;;;;;;12.90;7.90;;;2.70;18.80;;;;;;5048535;28;20474;-67
2024/01/30 04:06:02;;;;;;;12.47;7.83;;;2.70;18.80;;;;;;5048465;28;20830;-66
2024/01/30 04:08:29;;;;;;;12.40;7.83;;;2.70;19.00;;;;;;5048727;28;20484;-67
2024/01/30 04:10:56;;;;;;;14.03;8.87;;;2.70;19.00;;;;;;5051475;28;20457;-67
2024/01/30 04:13:22;;;;;;;16.33;9.00;;;2.60;18.90;;;;;;5050795;28;20480;-67
2024/01/30 04:15:49;;;;;;;13.23;8.90;;;2.70;19.00;;;;;;5053380;28;20465;-67
2024/01/30 04:18:16;;;;;;;13.80;9.67;;;2.60;18.90;;;;;;5051676;28;20484;-67
2024/01/30 04:20:42;;;;;;;15.50;10.00;;;2.60;19.00;;;;;;5052429;28;20450;-67
2024/01/30 04:23:10;;;;;;;14.40;10.73;;;2.60;19.10;;;;;;5049489;28;20540;-67
2024/01/30 04:25:37;;;;;;;15.10;9.80;;;2.60;19.20;;;;;;5052549;28;20457;-67
2024/01/30 04:28:04;;;;;;;16.73;11.33;;;2.60;19.10;;;;;;5051289;28;20481;-68
2024/01/30 04:30:31;;;;;;;14.27;9.77;;;2.70;19.30;;;;;;5052857;28;20454;-67
2024/01/30 04:32:58;;;;;;;13.43;10.00;;;2.60;19.20;;;;;;5054329;28;20477;-68
2024/01/30 04:35:24;;;;;;;13.93;9.60;;;2.60;19.30;;;;;;5048115;28;20458;-66
2024/01/30 04:37:53;;;;;;;16.30;10.20;;;2.60;19.20;;;;;;5053180;28;20943;-67
2024/01/30 04:40:21;;;;;;;17.83;10.77;;;2.60;19.20;;;;;;5042115;28;21135;-69
2024/01/30 04:42:48;;;;;;;14.93;9.70;;;2.70;19.20;;;;;;5047585;28;20461;-67
2024/01/30 04:45:14;;;;;;;15.27;11.10;;;2.70;19.30;;;;;;5049925;28;20466;-67
2024/01/30 04:47:41;;;;;;;16.70;11.90;;;2.70;19.30;;;;;;5049948;28;20481;-68
2024/01/30 04:50:09;;;;;;;32.63;13.10;;;2.70;19.40;;;;;;5049508;28;20994;-67
2024/01/30 04:52:36;;;;;;;15.60;11.30;;;2.70;19.40;;;;;;5050981;28;20547;-67
2024/01/30 04:55:03;;;;;;;16.70;11.90;;;2.70;19.40;;;;;;5048242;28;20478;-67
2024/01/30 04:57:33;;;;;;;16.20;11.67;;;2.70;19.60;;;;;;5047573;28;20823;-67
2024/01/30 05:00:00;;;;;;;16.30;11.90;;;2.70;19.70;;;;;;5050431;28;20483;-66
2024/01/30 05:02:26;;;;;;;21.03;12.60;;;2.70;19.80;;;;;;5049222;28;20473;-66
2024/01/30 05:04:53;;;;;;;20.07;13.17;;;2.70;19.80;;;;;;5050720;28;20461;-67
2024/01/30 05:07:20;;;;;;;20.47;13.17;;;2.70;19.90;;;;;;5046069;28;20477;-66
2024/01/30 05:09:47;;;;;;;19.93;12.47;;;2.80;20.30;;;;;;5046184;28;20466;-67
2024/01/30 05:12:13;;;;;;;20.50;13.17;;;2.80;19.90;;;;;;5045166;28;20993;-67
2024/01/30 05:14:41;;;;;;;21.33;14.10;;;2.80;19.90;;;;;;5051117;28;20458;-67
2024/01/30 05:17:10;;;;;;;19.07;12.53;;;2.80;20.00;;;;;;5047024;28;20481;-67
2024/01/30 05:19:36;;;;;;;20.00;12.33;;;2.80;19.90;;;;;;5049871;28;20450;-67
2024/01/30 05:22:03;;;;;;;18.70;12.07;;;2.80;20.00;;;;;;5048281;28;20458;-67
2024/01/30 05:24:30;;;;;;;20.23;13.23;;;2.90;20.10;;;;;;5050623;28;20465;-67
2024/01/30 05:26:57;;;;;;;20.67;12.70;;;2.90;20.20;;;;;;5049355;28;20478;-67
2024/01/30 05:29:24;;;;;;;18.83;12.73;;;2.90;20.10;;;;;;5049826;28;20834;-67
2024/01/30 05:31:52;;;;;;;17.90;12.10;;;2.90;20.10;;;;;;5046525;28;20543;-67
2024/01/30 05:34:19;;;;;;;20.60;12.67;;;2.90;20.20;;;;;;5048904;28;20458;-67
2024/01/30 05:36:45;;;;;;;21.63;13.27;;;2.90;20.20;;;;;;5050090;28;20482;-68
2024/01/30 05:39:13;;;;;;;18.33;11.33;;;2.90;20.30;;;;;;5049863;28;20454;-67
2024/01/30 05:41:40;;;;;;;19.13;13.17;;;2.90;20.20;;;;;;5045081;28;20512;-67
2024/01/30 05:44:06;;;;;;;17.77;12.73;;;2.90;20.10;;;;;;5052372;28;20462;-67
2024/01/30 05:46:34;;;;;;;17.57;13.10;;;3.00;20.00;;;;;;5051183;28;20470;-67
2024/01/30 05:49:02;;;;;;;20.37;13.60;;;3.00;20.00;;;;;;5048909;28;20958;-67
2024/01/30 05:51:29;;;;;;;18.37;12.27;;;3.00;20.00;;;;;;5049155;28;20450;-67
2024/01/30 05:53:56;;;;;;;19.90;12.70;;;3.00;20.00;;;;;;5050391;28;20557;-67
2024/01/30 05:56:22;;;;;;;19.87;12.23;;;3.00;20.00;;;;;;5046941;28;20466;-67
2024/01/30 05:58:50;;;;;;;18.03;12.53;;;3.00;20.00;;;;;;5048852;28;20468;-68
2024/01/30 06:01:16;;;;;;;16.87;11.23;;;3.00;20.00;;;;;;5050837;28;20604;-67
2024/01/30 06:03:44;;;;;;;18.00;12.07;;;2.90;20.00;;;;;;5043445;28;20454;-67
2024/01/30 06:06:12;;;;;;;17.80;12.33;;;2.90;20.00;;;;;;5042531;28;20927;-67
2024/01/30 06:08:38;;;;;;;20.50;13.00;;;2.90;20.00;;;;;;5044533;28;20478;-67
2024/01/30 06:11:05;;;;;;;17.87;11.67;;;2.90;20.00;;;;;;5045579;28;21077;-67
2024/01/30 06:13:32;;;;;;;22.67;12.27;;;2.90;19.90;;;;;;5049468;28;20478;-67
2024/01/30 06:15:59;;;;;;;17.90;12.07;;;2.90;20.00;;;;;;5048142;28;20515;-67
2024/01/30 06:18:27;;;;;;;18.50;12.03;;;2.90;20.00;;;;;;5049199;28;20863;-67
2024/01/30 06:20:53;;;;;;;18.53;11.87;;;2.90;20.00;;;;;;5049891;28;20547;-67
2024/01/30 06:23:21;;;;;;;18.07;11.90;;;2.80;19.90;;;;;;5048278;28;20469;-67
2024/01/30 06:25:48;;;;;;;19.30;13.17;;;2.90;20.00;;;;;;5043728;28;20922;-68
2024/01/30 06:28:15;;;;;;;16.30;11.03;;;2.90;20.00;;;;;;5041126;28;20491;-67
2024/01/30 06:30:41;;;;;;;19.13;13.50;;;2.90;20.00;;;;;;5041032;28;20474;-67
2024/01/30 06:33:08;;;;;;;21.63;14.33;;;2.80;20.00;;;;;;5048701;28;20486;-67
2024/01/30 06:35:36;;;;;;;19.77;13.13;;;2.80;20.00;;;;;;5047664;28;20473;-67
2024/01/30 06:38:02;;;;;;;22.83;13.93;;;2.80;20.00;;;;;;5053809;28;20462;-67
2024/01/30 06:40:30;;;;;;;19.67;12.20;;;2.80;20.00;;;;;;5074995;28;20442;-66
2024/01/30 06:42:57;;;;;;;17.07;11.50;;;2.80;20.00;;;;;;5063819;28;20947;-67
2024/01/30 06:45:24;;;;;;;21.87;13.70;;;2.80;19.90;;;;;;5046810;28;20745;-67
2024/01/30 06:47:50;;;;;;;18.47;11.13;;;2.80;19.90;;;;;;5047350;28;20482;-67
2024/01/30 06:50:17;;;;;;;22.47;13.40;;;2.80;19.80;;;;;;5047271;28;20458;-67
2024/01/30 06:52:44;;;;;;;17.27;11.23;;;2.80;19.80;;;;;;5043093;28;20508;-67
2024/01/30 06:55:10;;;;;;;21.97;13.00;;;2.80;19.80;;;;;;5048201;28;20465;-66
2024/01/30 06:57:38;;;;;;;18.10;12.57;;;2.90;19.90;;;;;;5046782;28;20482;-66
2024/01/30 07:00:07;;;;;;;15.97;10.90;;;2.90;19.90;;;;;;5044846;28;20461;-66
2024/01/30 07:02:33;;;;;;;13.80;10.67;;;2.90;19.90;;;;;;5045049;28;20486;-66
2024/01/30 07:05:00;;;;;;;16.47;10.90;;;2.90;19.80;;;;;;5049186;28;20466;-66
2024/01/30 07:07:26;;;;;;;16.27;11.23;;;3.00;19.70;;;;;;5046310;28;20488;-66
2024/01/30 07:09:56;;;;;;;16.23;10.93;;;3.10;19.70;;;;;;5045990;28;20462;-66
2024/01/30 07:12:24;;;;;;;16.40;11.03;;;3.10;19.60;;;;;;5046717;28;20957;-66
2024/01/30 07:14:52;;;;;;;12.60;9.07;;;3.20;19.30;;;;;;5047609;28;20465;-66
2024/01/30 07:17:19;;;;;;;16.87;11.07;;;3.30;19.80;;;;;;5047345;28;20512;-66
2024/01/30 07:19:45;;;;;;;14.67;10.13;;;3.40;19.10;;;;;;5048185;28;20462;-66
2024/01/30 07:22:14;;;;;;;15.13;10.57;;;3.40;18.90;;;;;;5047716;28;20950;-66
2024/01/30 07:24:46;;;;;;;14.60;10.23;;;3.50;18.90;;;;;;5044943;28;20477;-66
2024/01/30 07:27:13;;;;;;;15.77;9.83;;;3.60;18.70;;;;;;5044234;28;20478;-66
2024/01/30 07:29:40;;;;;;;12.50;8.57;;;3.80;18.50;;;;;;5046012;28;20489;-66
2024/01/30 07:32:08;;;;;;;13.40;9.90;;;3.90;18.30;;;;;;5044690;28;20497;-66
2024/01/30 07:34:36;;;;;;;17.70;10.50;;;4.10;18.00;;;;;;5046834;28;20810;-66
2024/01/30 07:37:02;;;;;;;13.97;10.10;;;4.30;17.70;;;;;;5047819;28;20486;-66
2024/01/30 07:39:29;;;;;;;12.63;9.10;;;4.70;17.10;;;;;;5043688;28;20949;-66
2024/01/30 07:41:56;;;;;;;13.50;9.63;;;5.10;16.30;;;;;;5047884;28;20469;-66
2024/01/30 07:44:23;;;;;;;11.60;8.87;;;5.50;15.30;;;;;;5044876;28;20458;-66
2024/01/30 07:46:50;;;;;;;21.03;9.90;;;5.80;14.50;;;;;;5045685;28;20474;-67
2024/01/30 07:49:18;;;;;;;12.10;8.60;;;6.00;13.50;;;;;;5043662;28;20454;-67
2024/01/30 07:51:45;;;;;;;14.83;8.90;;;6.20;12.60;;;;;;5044522;28;20467;-68
2024/01/30 07:54:11;;;;;;;13.03;9.20;;;6.30;12.50;;;;;;5039749;28;20489;-68
2024/01/30 07:56:38;;;;;;;13.10;8.53;;;6.30;12.40;;;;;;5044993;28;20462;-68
2024/01/30 07:59:05;;;;;;;13.37;9.40;;;6.30;12.20;;;;;;5047323;28;20462;-69
2024/01/30 08:01:31;;;;;;;14.20;9.10;;;6.40;12.20;;;;;;5042462;28;20466;-69
2024/01/30 08:03:58;;;;;;;12.83;8.53;;;6.50;11.90;;;;;;5042059;28;20532;-69
2024/01/30 08:06:26;;;;;;;12.43;8.73;;;6.60;11.60;;;;;;5043593;28;20453;-69
2024/01/30 08:08:53;;;;;;;12.30;8.23;;;6.80;11.30;;;;;;5047342;28;20465;-69
2024/01/30 08:11:25;;;;;;;12.97;8.70;;;7.40;10.90;;;;;;5046327;28;20511;-68
2024/01/30 08:13:52;;;;;;;13.23;8.10;;;8.10;9.20;;;;;;5039911;28;20489;-70
2024/01/30 08:16:18;;;;;;;28.30;18.30;;;8.70;7.90;;;;;;5043728;28;20818;-69
2024/01/30 08:18:45;;;;;;;17.33;12.70;;;9.20;6.60;;;;;;5039442;28;20478;-68
2024/01/30 08:21:12;;;;;;;11.87;9.60;;;9.50;5.50;;;;;;5041914;28;20458;-68
2024/01/30 08:23:41;;;;;;;11.20;8.10;;;9.80;4.70;;;;;;5040431;28;20465;-68
2024/01/30 08:26:07;;;;;;;13.10;9.90;;;10.10;4.40;;;;;;5043391;28;20462;-68
2024/01/30 08:28:34;;;;;;;12.97;9.00;;;10.40;3.90;;;;;;5045760;28;20501;-72
2024/01/30 08:31:01;;;;;;;13.90;9.20;;;10.60;3.70;;;;;;5044002;28;20470;-70
2024/01/30 08:33:28;;;;;;;12.43;7.87;;;10.90;3.30;;;;;;5046511;28;20487;-69
2024/01/30 08:35:55;;;;;;;11.30;8.73;;;11.10;2.80;;;;;;5044701;28;20484;-68
2024/01/30 08:38:21;;;;;;;13.00;9.57;;;11.20;1.80;;;;;;5043577;28;20494;-67
2024/01/30 08:40:50;;;;;;;11.23;8.00;;;11.40;1.40;;;;;;5042245;28;20458;-68
2024/01/30 08:43:17;;;;;;;12.87;8.70;;;11.50;1.00;;;;;;5043457;28;20464;-66
2024/01/30 08:45:44;;;;;;;11.30;8.20;;;11.50;1.00;;;;;;5041444;28;20458;-69
2024/01/30 08:48:10;;;;;;;14.57;9.47;;;11.60;1.00;;;;;;5046058;28;20478;-66
2024/01/30 08:50:37;;;;;;;13.63;7.53;;;11.80;1.00;;;;;;5035322;28;20458;-67
2024/01/30 08:53:04;;;;;;;13.13;9.03;;;12.30;1.00;;;;;;5028478;28;20484;-66
2024/01/30 08:55:31;;;;;;;14.03;8.70;;;12.60;1.00;;;;;;5039680;28;20853;-69
2024/01/30 08:57:59;;;;;;;11.40;8.63;;;12.70;1.00;;;;;;5045974;28;20479;-67
2024/01/30 09:03:06;;;;;;;14.23;9.40;;;13.20;1.00;;;;;;5052563;28;20477;-72
2024/01/30 09:05:33;;;;;;;12.40;9.37;;;13.40;1.00;;;;;;5064324;28;20465;-73
2024/01/30 09:07:59;;;;;;;11.77;9.00;;;13.70;1.00;;;;;;5060353;28;20483;-72
2024/01/30 09:10:26;;;;;;;11.87;8.70;;;13.80;1.00;;;;;;5060989;28;20449;-72
2024/01/30 09:12:53;;;;;;;10.83;8.63;;;13.90;1.00;;;;;;5061673;28;20481;-72
2024/01/30 09:15:21;;;;;;;12.10;9.70;;;14.10;1.00;;;;;;5062035;28;20494;-73
2024/01/30 09:17:48;;;;;;;14.97;9.93;;;14.40;1.00;;;;;;5066638;28;20485;-66
2024/01/30 09:20:14;;;;;;;15.10;10.20;;;14.60;1.00;;;;;;5059629;28;20517;-70
2024/01/30 09:22:41;;;;;;;13.43;8.37;;;14.60;1.00;;;;;;5061816;28;20457;-71
2024/01/30 09:25:08;;;;;;;13.47;10.00;;;15.40;1.00;;;;;;5060880;28;20462;-70
2024/01/30 09:27:35;;;;;;;13.20;10.30;;;16.30;1.00;;;;;;5057780;28;20491;-70
2024/01/30 09:30:03;;;;;;;10.97;9.23;;;17.00;1.00;;;;;;5060858;28;20460;-73
2024/01/30 09:32:31;;;;;;;13.13;9.33;;;17.20;1.00;;;;;;5060903;28;21080;-71
2024/01/30 09:34:57;;;;;;;10.00;8.40;;;16.80;1.00;;;;;;5057195;28;20512;-71
2024/01/30 09:37:24;;;;;;;12.50;9.63;;;16.30;1.00;;;;;;5063016;28;20490;-71
2024/01/30 09:39:51;;;;;;;11.77;9.13;;;15.80;1.00;;;;;;5065460;28;20456;-70
2024/01/30 09:42:27;;;;;;;11.77;9.87;;;15.60;1.00;;;;;;5060643;28;20938;-70
2024/01/30 09:44:54;;;;;;;11.73;9.17;;;15.60;1.00;;;;;;5063747;28;20449;-70
2024/01/30 09:47:21;;;;;;;11.97;8.60;;;15.90;1.00;;;;;;5057660;28;20485;-70
2024/01/30 09:49:50;;;;;;;11.17;8.50;;;16.10;1.00;;;;;;5061021;28;20465;-70
2024/01/30 09:52:16;;;;;;;10.63;8.70;;;16.00;1.00;;;;;;5067385;28;20504;-70
2024/01/30 09:54:44;;;;;;;11.23;8.37;;;15.90;1.00;;;;;;5061829;28;20493;-70
2024/01/30 09:57:12;;;;;;;11.70;8.73;;;16.10;1.00;;;;;;5065012;28;20495;-70
2024/01/30 09:59:39;;;;;;;10.77;8.70;;;16.20;1.00;;;;;;5062316;28;20931;-70
2024/01/30 10:02:06;;;;;;;9.90;8.10;;;16.10;1.00;;;;;;5057955;28;20481;-70
2024/01/30 10:04:33;;;;;;;12.40;8.60;;;15.90;1.00;;;;;;5060556;28;20454;-71
2024/01/30 10:07:02;;;;;;;13.77;9.33;;;15.80;1.00;;;;;;5061330;28;21009;-70
2024/01/30 10:09:32;;;;;;;12.73;9.03;;;15.90;1.00;;;;;;5056305;28;20844;-71
2024/01/30 10:11:59;;;;;;;13.83;10.00;;;16.00;1.00;;;;;;5058469;28;20477;-70
2024/01/30 10:14:26;;;;;;;11.70;9.33;;;15.80;1.00;;;;;;5060756;28;20500;-70
2024/01/30 10:16:53;;;;;;;13.40;9.93;;;15.30;1.00;;;;;;5054298;28;21043;-72
2024/01/30 10:19:19;;;;;;;12.00;10.70;;;14.90;1.00;;;;;;5057653;28;20480;-68
2024/01/30 10:21:47;;;;;;;14.30;9.27;;;14.60;1.00;;;;;;5056181;28;22202;-68
2024/01/30 10:24:16;;;;;;;13.50;9.43;;;14.30;1.00;;;;;;5063672;28;20464;-68
2024/01/30 10:26:44;;;;;;;11.70;8.40;;;14.20;1.00;;;;;;5061383;28;20556;-69
2024/01/30 10:29:11;;;;;;;12.57;8.90;;;14.00;1.00;;;;;;5064093;28;20468;-68
2024/01/30 10:31:38;;;;;;;15.33;9.87;;;13.90;1.00;;;;;;5061100;28;20468;-71
2024/01/30 10:34:06;;;;;;;12.13;8.40;;;13.80;1.00;;;;;;5059935;28;20485;-67
2024/01/30 10:36:40;;;;;;;12.83;8.30;;;13.80;1.00;;;;;;5063119;28;20469;-67
2024/01/30 10:39:08;;;;;;;10.90;8.40;;;13.70;1.00;;;;;;5063211;28;20464;-67
2024/01/30 10:41:44;;;;;;;19.00;10.80;;;13.80;1.00;;;;;;5072869;28;21024;-67
2024/01/30 10:44:11;;;;;;;13.10;10.10;;;13.80;1.00;;;;;;5078945;28;20453;-67
2024/01/30 10:46:39;;;;;;;14.47;9.47;;;14.00;1.00;;;;;;5064399;28;20451;-67
2024/01/30 10:49:07;;;;;;;13.07;9.30;;;14.20;1.00;;;;;;5061282;28;20469;-67
2024/01/30 10:51:35;;;;;;;12.33;9.13;;;14.50;1.00;;;;;;5057797;28;20466;-67
2024/01/30 10:54:03;;;;;;;13.63;10.40;;;14.80;1.00;;;;;;5059390;28;20498;-66
2024/01/30 10:56:33;;;;;;;11.53;9.43;;;15.00;1.00;;;;;;5058076;28;20461;-66
2024/01/30 10:59:01;;;;;;;13.10;9.00;;;15.00;1.00;;;;;;5060673;28;20457;-70
2024/01/30 11:01:29;;;;;;;11.43;8.53;;;15.00;1.00;;;;;;5063240;28;20479;-70
2024/01/30 11:03:56;;;;;;;11.27;8.90;;;14.90;1.00;;;;;;5054113;28;20458;-70
2024/01/30 11:06:24;;;;;;;10.27;8.50;;;14.90;1.00;;;;;;5060351;28;20491;-70
2024/01/30 11:09:02;;;;;;;12.90;9.10;;;14.90;1.00;;;;;;5057893;28;20458;-71
2024/01/30 11:11:29;;;;;;;13.27;9.00;;;14.80;1.00;;;;;;5060038;28;20870;-73
2024/01/30 11:13:56;;;;;;;13.40;10.60;;;14.90;1.00;;;;;;5053980;28;20485;-72
2024/01/30 11:16:31;;;;;;;17.13;12.30;;;15.10;1.00;;;;;;5055290;28;20480;-72
2024/01/30 11:19:02;;;;;;;12.53;10.20;;;15.20;1.00;;;;;;5063132;28;20477;-70
2024/01/30 11:21:28;;;;;;;14.57;8.93;;;15.40;1.00;;;;;;5063314;28;20550;-70
2024/01/30 11:23:56;;;;;;;12.50;9.20;;;15.60;1.00;;;;;;5058928;28;20824;-69
2024/01/30 11:26:28;;;;;;;14.40;9.70;;;16.00;1.00;;;;;;5056897;28;20458;-69
2024/01/30 11:28:56;;;;;;;13.37;11.10;;;16.40;1.00;;;;;;5046481;28;20477;-70
2024/01/30 11:31:24;;;;;;;14.40;10.63;;;16.80;1.00;;;;;;5058811;28;20474;-70
2024/01/30 11:33:54;;;;;;;12.77;9.13;;;17.10;1.00;;;;;;5060580;28;20485;-69
2024/01/30 11:36:25;;;;;;;12.60;10.00;;;17.10;1.00;;;;;;5056399;28;20458;-71
2024/01/30 11:38:52;;;;;;;13.67;9.90;;;17.30;1.00;;;;;;5053159;28;20450;-71
2024/01/30 11:41:19;;;;;;;12.77;10.17;;;17.20;1.00;;;;;;5060211;28;20461;-69
2024/01/30 11:43:52;;;;;;;14.80;10.50;;;17.10;1.00;;;;;;5058276;28;20507;-70
2024/01/30 11:46:19;;;;;;;11.97;9.70;;;17.10;1.00;;;;;;5061284;28;20468;-70
2024/01/30 11:48:47;;;;;;;13.40;10.50;;;17.00;1.00;;;;;;5055656;28;20487;-68
2024/01/30 11:51:14;;;;;;;13.27;9.90;;;17.00;1.00;;;;;;5054825;28;20971;-68
2024/01/30 11:53:44;;;;;;;11.20;9.00;;;17.30;1.00;;;;;;5058523;28;21013;-68
2024/01/30 11:56:13;;;;;;;12.17;10.10;;;17.60;1.00;;;;;;5058152;28;20800;-68
2024/01/30 11:58:43;;;;;;;14.63;10.17;;;18.00;1.00;;;;;;5055246;28;20497;-68
2024/01/30 12:01:11;;;;;;;12.67;9.67;;;18.00;1.00;;;;;;5053671;28;20944;-68
2024/01/30 12:03:37;;;;;;;11.10;9.17;;;17.90;1.00;;;;;;5054535;28;20464;-68
2024/01/30 12:06:06;;;;;;;12.40;9.87;;;17.70;1.00;;;;;;5055086;28;20836;-68
2024/01/30 12:08:33;;;;;;;13.10;8.83;;;17.50;1.00;;;;;;5051503;28;20478;-68
2024/01/30 12:11:01;;;;;;;11.97;10.07;;;17.20;1.00;;;;;;5056603;28;20454;-68
2024/01/30 12:13:28;;;;;;;13.37;9.80;;;17.00;1.00;;;;;;5058766;28;21232;-68
2024/01/30 12:15:55;;;;;;;14.43;11.03;;;16.80;1.00;;;;;;5061192;28;20457;-68
2024/01/30 12:18:22;;;;;;;14.77;10.00;;;16.60;1.00;;;;;;5060704;28;20488;-68
2024/01/30 12:20:58;;;;;;;14.10;10.43;;;16.40;1.00;;;;;;5054529;28;20476;-68
2024/01/30 12:23:27;;;;;;;20.13;9.60;;;16.40;1.00;;;;;;5058092;28;20457;-68
2024/01/30 12:25:54;;;;;;;13.37;9.97;;;16.30;1.00;;;;;;5054878;28;20461;-68
2024/01/30 12:28:21;;;;;;;13.90;9.43;;;16.30;1.00;;;;;;5052380;28;20473;-68
2024/01/30 12:30:48;;;;;;;17.43;10.50;;;16.30;1.00;;;;;;5058901;28;20481;-68
2024/01/30 12:33:18;;;;;;;12.20;10.47;;;16.30;1.00;;;;;;5056639;28;20465;-68
2024/01/30 12:35:47;;;;;;;14.60;9.57;;;16.30;1.00;;;;;;5059248;28;20482;-68
2024/01/30 12:38:14;;;;;;;12.20;9.80;;;16.20;1.00;;;;;;5058042;28;20545;-68
2024/01/30 12:40:42;;;;;;;13.17;10.30;;;16.10;1.00;;;;;;5059989;28;20464;-68
2024/01/30 12:43:09;;;;;;;12.87;10.70;;;16.00;1.00;;;;;;5057547;28;20960;-68
2024/01/30 12:45:37;;;;;;;13.77;11.07;;;15.90;1.00;;;;;;5063133;28;20461;-68